createdAt,value
2022-11-16T00:02:07.445Z,27.70
2022-11-16T00:09:22.547Z,26.45
2022-11-16T00:16:24.126Z,30.63
2022-11-16T00:23:25.715Z,29.00
2022-11-16T00:30:27.285Z,31.23
2022-11-16T00:37:28.886Z,27.38
2022-11-16T00:44:30.532Z,28.20
2022-11-16T00:51:32.806Z,23.33
2022-11-16T00:58:34.895Z,27.15
2022-11-16T01:05:41.098Z,28.95
2022-11-16T01:12:42.981Z,28.80
2022-11-16T01:19:44.611Z,30.55
2022-11-16T01:26:46.258Z,26.05
2022-11-16T01:33:48.339Z,31.02
2022-11-16T01:40:59.327Z,28.05
2022-11-16T01:48:04.743Z,27.85
2022-11-16T01:55:08.898Z,26.80
2022-11-16T02:02:20.535Z,30.95
2022-11-16T02:09:49.861Z,27.83
2022-11-16T02:17:19.788Z,27.30
2022-11-16T02:24:56.785Z,29.90
2022-11-16T02:32:23.298Z,25.70
2022-11-16T02:39:27.146Z,24.20
2022-11-16T02:46:36.041Z,28.95
2022-11-16T02:53:57.598Z,29.27
2022-11-16T03:01:03.288Z,33.33
2022-11-16T03:08:20.369Z,30.90
2022-11-16T03:15:23.976Z,24.52
2022-11-16T03:22:35.387Z,28.45
2022-11-16T03:29:47.112Z,20.10
2022-11-16T03:36:48.787Z,31.10
2022-11-16T03:43:50.528Z,32.30
2022-11-16T03:50:53.130Z,29.83
2022-11-16T03:57:55.585Z,35.85
2022-11-16T04:05:17.604Z,41.28
2022-11-16T04:12:37.846Z,38.15
2022-11-16T04:19:58.485Z,30.85
2022-11-16T04:27:22.825Z,40.03
2022-11-16T04:34:43.257Z,32.85
2022-11-16T04:42:03.584Z,41.88
2022-11-16T04:49:06.773Z,36.30
2022-11-16T04:56:08.514Z,32.92
2022-11-16T05:03:10.364Z,35.90
2022-11-16T05:10:13.912Z,37.92
2022-11-16T05:17:16.108Z,43.67
2022-11-16T05:24:36.011Z,46.25
2022-11-16T05:31:40.585Z,44.38
2022-11-16T05:38:43.618Z,40.85
2022-11-16T05:45:45.606Z,55.78
2022-11-16T05:52:49.561Z,52.28
2022-11-16T05:59:51.239Z,42.72
2022-11-16T06:06:53.293Z,50.17
2022-11-16T06:13:55.053Z,42.00
2022-11-16T06:20:56.804Z,47.42
2022-11-16T06:28:01.913Z,43.45
2022-11-16T06:35:08.105Z,43.38
2022-11-16T06:42:10.109Z,55.28
2022-11-16T06:49:13.663Z,37.85
2022-11-16T06:56:16.313Z,45.00
2022-11-16T07:03:23.737Z,54.08
2022-11-16T07:10:25.760Z,47.63
2022-11-16T07:17:28.324Z,45.75
2022-11-16T07:24:30.398Z,41.97
2022-11-16T07:31:32.149Z,48.70
2022-11-16T07:39:07.021Z,42.53
2022-11-16T07:46:45.459Z,47.22
2022-11-16T07:53:43.367Z,50.65
2022-11-16T08:00:45.055Z,39.47
2022-11-16T08:07:49.766Z,43.40
2022-11-16T08:14:52.749Z,45.55
2022-11-16T08:21:55.302Z,41.22
2022-11-16T08:28:57.373Z,35.45
2022-11-16T08:36:14.176Z,35.53
2022-11-16T08:43:17.343Z,46.80
2022-11-16T08:50:19.297Z,37.70
2022-11-16T08:57:20.920Z,30.30
2022-11-16T09:04:29.608Z,44.15
2022-11-16T09:11:33.181Z,28.83
2022-11-16T09:18:35.409Z,26.83
2022-11-16T09:25:37.170Z,29.63
2022-11-16T09:32:38.747Z,32.90
2022-11-16T09:39:40.304Z,15.70
2022-11-16T09:46:44.012Z,32.15
2022-11-16T09:53:47.576Z,22.55
2022-11-16T10:00:54.234Z,25.13
2022-11-16T10:08:33.800Z,29.27
2022-11-16T10:15:50.305Z,26.25
2022-11-16T10:23:01.155Z,21.88
2022-11-16T10:30:16.069Z,25.02
2022-11-16T10:37:17.644Z,22.17
2022-11-16T10:44:39.772Z,29.38
2022-11-16T10:51:41.423Z,30.27
2022-11-16T10:58:49.809Z,22.90
2022-11-16T11:05:54.444Z,25.77
2022-11-16T11:13:22.307Z,28.52
2022-11-16T11:20:24.378Z,24.80
2022-11-16T11:27:29.096Z,28.13
2022-11-16T11:34:41.715Z,28.17
2022-11-16T11:41:44.188Z,30.02
2022-11-16T11:48:56.538Z,23.27
2022-11-16T11:55:58.503Z,18.38
2022-11-16T12:03:26.705Z,23.27
2022-11-16T12:10:40.959Z,18.20
2022-11-16T12:18:03.395Z,18.05
2022-11-16T12:25:14.906Z,24.55
2022-11-16T12:32:16.435Z,25.17
2022-11-16T12:39:34.472Z,27.55
2022-11-16T12:46:54.873Z,28.15
2022-11-16T12:54:12.498Z,31.95
2022-11-16T13:01:17.919Z,29.33
2022-11-16T13:08:23.298Z,27.13
2022-11-16T13:15:37.161Z,28.85
2022-11-16T13:22:38.696Z,23.55
2022-11-16T13:29:47.759Z,26.05
2022-11-16T13:36:49.336Z,22.92
2022-11-16T13:43:50.959Z,21.05
2022-11-16T13:50:57.448Z,23.95
2022-11-16T13:58:00.305Z,18.52
2022-11-16T14:05:11.830Z,20.42
2022-11-16T14:12:38.316Z,18.83
2022-11-16T14:19:49.130Z,17.13
2022-11-16T14:27:18.678Z,20.63
2022-11-16T14:34:22.830Z,19.77
2022-11-16T14:41:24.434Z,18.17
2022-11-16T14:48:26.149Z,16.17
2022-11-16T14:55:27.863Z,18.48
2022-11-16T15:02:29.432Z,19.25
2022-11-16T15:09:36.955Z,19.23
2022-11-16T15:16:51.915Z,16.10
2022-11-16T15:24:23.421Z,12.85
2022-11-16T15:31:15.383Z,13.93
2022-11-16T15:38:18.904Z,15.07
2022-11-16T15:45:24.866Z,13.35
2022-11-16T15:52:45.884Z,14.85
2022-11-16T16:00:00.020Z,15.75
2022-11-16T16:07:01.712Z,16.83
2022-11-16T16:14:03.587Z,13.32
2022-11-16T16:21:05.178Z,16.92
2022-11-16T16:28:06.734Z,17.38
2022-11-16T16:35:15.316Z,14.90
2022-11-16T16:42:17.085Z,17.70
2022-11-16T16:49:18.664Z,13.55
2022-11-16T16:56:20.273Z,17.15
2022-11-16T17:03:21.879Z,16.08
2022-11-16T17:10:23.590Z,14.63
2022-11-16T17:17:25.458Z,13.82
2022-11-16T17:24:27.029Z,13.52
2022-11-16T17:31:28.655Z,14.43
2022-11-16T17:38:31.175Z,7.45
2022-11-16T17:45:32.774Z,13.43
2022-11-16T17:52:34.338Z,11.13
2022-11-16T17:59:35.953Z,10.07
2022-11-16T18:06:37.613Z,12.95
2022-11-16T18:13:39.254Z,12.43
2022-11-16T18:20:40.819Z,11.02
2022-11-16T18:27:42.385Z,9.05
2022-11-16T18:34:44.035Z,11.10
2022-11-16T18:41:51.536Z,12.40
2022-11-16T18:48:56.114Z,9.05
2022-11-16T18:55:58.350Z,12.10
2022-11-16T19:03:00.091Z,10.68
2022-11-16T19:10:01.648Z,9.65
2022-11-16T19:17:04.826Z,12.73
2022-11-16T19:24:06.728Z,7.47
2022-11-16T19:31:08.876Z,9.35
2022-11-16T19:38:10.484Z,9.57
2022-11-16T19:45:12.033Z,9.75
2022-11-16T19:52:13.855Z,8.15
2022-11-16T19:59:15.397Z,9.07
2022-11-16T20:06:19.180Z,10.77
2022-11-16T20:13:22.008Z,9.82
2022-11-16T20:20:23.605Z,10.52
2022-11-16T20:27:25.416Z,10.80
2022-11-16T20:34:27.026Z,11.80
2022-11-16T20:41:29.887Z,8.80
2022-11-16T20:48:31.473Z,11.00
2022-11-16T20:55:33.083Z,10.50
2022-11-16T21:02:34.729Z,11.77
2022-11-16T21:09:56.315Z,10.60
2022-11-16T21:16:57.926Z,7.78
2022-11-16T21:23:59.563Z,10.90
2022-11-16T21:31:02.444Z,9.85
2022-11-16T21:38:04.045Z,13.05
2022-11-16T21:45:06.143Z,9.73
2022-11-16T21:52:07.735Z,16.80
2022-11-16T21:59:09.352Z,9.55
2022-11-16T22:06:31.921Z,12.15
2022-11-16T22:13:34.133Z,8.05
2022-11-16T22:20:35.950Z,10.38
2022-11-16T22:27:52.337Z,9.95
2022-11-16T22:34:59.193Z,10.13
2022-11-16T22:42:01.093Z,9.95
2022-11-16T22:49:02.693Z,7.95
2022-11-16T22:56:06.181Z,10.82
2022-11-16T23:03:07.819Z,9.25
2022-11-16T23:10:09.964Z,7.60
2022-11-16T23:17:11.543Z,9.57
2022-11-16T23:24:32.379Z,15.00
2022-11-16T23:31:35.400Z,12.05
2022-11-16T23:38:37.027Z,10.25
2022-11-16T23:45:39.201Z,20.88
2022-11-16T23:52:40.792Z,10.38
2022-11-16T23:59:42.407Z,11.80
